createdAt,value
2023-01-15T00:00:24.855Z,1.10
2023-01-15T00:02:51.766Z,1.02
2023-01-15T00:05:18.688Z,1.27
2023-01-15T00:07:45.651Z,1.13
2023-01-15T00:10:17.311Z,1.50
2023-01-15T00:12:44.252Z,1.15
2023-01-15T00:15:14.305Z,1.00
2023-01-15T00:17:41.411Z,1.02
2023-01-15T00:20:09.590Z,1.00
2023-01-15T00:22:38.594Z,1.00
2023-01-15T00:25:24.945Z,1.00
2023-01-15T00:27:51.948Z,0.80
2023-01-15T00:30:18.800Z,0.90
2023-01-15T00:32:45.895Z,0.88
2023-01-15T00:35:20.727Z,0.75
2023-01-15T00:37:50.363Z,0.73
2023-01-15T00:40:20.707Z,0.60
2023-01-15T00:42:53.991Z,0.70
2023-01-15T00:45:22.390Z,0.50
2023-01-15T00:47:51.801Z,0.70
2023-01-15T00:50:18.905Z,0.50
2023-01-15T00:52:45.857Z,0.60
2023-01-15T00:55:14.827Z,0.57
2023-01-15T00:57:41.677Z,0.52
2023-01-15T01:00:09.726Z,0.50
2023-01-15T01:02:39.212Z,0.38
2023-01-15T01:05:06.527Z,0.70
2023-01-15T01:07:36.490Z,0.60
2023-01-15T01:10:03.669Z,0.43
2023-01-15T01:12:32.694Z,0.40
2023-01-15T01:14:59.588Z,0.40
2023-01-15T01:17:26.611Z,0.60
2023-01-15T01:19:53.467Z,0.88
2023-01-15T01:22:20.345Z,1.00
2023-01-15T01:24:49.563Z,0.50
2023-01-15T01:27:19.403Z,0.60
2023-01-15T01:29:46.246Z,0.50
2023-01-15T01:32:15.648Z,0.60
2023-01-15T01:34:47.227Z,0.60
2023-01-15T01:39:45.375Z,0.63
2023-01-15T01:42:17.950Z,0.60
2023-01-15T01:44:44.860Z,0.50
2023-01-15T01:47:25.103Z,0.52
2023-01-15T01:49:58.586Z,0.50
2023-01-15T01:52:37.404Z,0.50
2023-01-15T01:55:07.659Z,0.47
2023-01-15T01:57:37.563Z,0.38
2023-01-15T02:00:06.912Z,0.32
2023-01-15T02:02:34.882Z,0.50
2023-01-15T02:05:02.525Z,0.40
2023-01-15T02:07:33.448Z,0.35
2023-01-15T02:10:00.587Z,0.20
2023-01-15T02:12:38.427Z,0.50
2023-01-15T02:15:08.154Z,0.40
2023-01-15T02:18:37.256Z,0.30
2023-01-15T02:21:48.029Z,0.20
2023-01-15T02:24:54.619Z,0.40
2023-01-15T02:27:25.283Z,0.20
2023-01-15T02:30:23.152Z,0.33
2023-01-15T02:32:59.496Z,0.75
2023-01-15T02:35:43.698Z,0.63
2023-01-15T02:38:17.766Z,0.60
2023-01-15T02:40:46.035Z,0.30
2023-01-15T02:43:15.638Z,0.80
2023-01-15T02:45:46.770Z,0.57
2023-01-15T02:48:16.862Z,0.82
2023-01-15T02:50:56.907Z,1.02
2023-01-15T02:53:30.406Z,0.75
2023-01-15T02:56:03.560Z,0.68
2023-01-15T02:58:38.467Z,0.57
2023-01-15T03:01:14.850Z,0.40
2023-01-15T03:03:52.656Z,0.50
2023-01-15T03:06:37.579Z,0.85
2023-01-15T03:09:09.107Z,0.50
2023-01-15T03:14:24.989Z,0.60
2023-01-15T03:16:57.525Z,1.10
2023-01-15T03:19:39.516Z,0.30
2023-01-15T03:22:19.713Z,0.30
2023-01-15T03:25:00.723Z,0.95
2023-01-15T03:27:28.346Z,0.30
2023-01-15T03:30:08.512Z,1.30
2023-01-15T03:32:36.333Z,0.40
2023-01-15T03:35:05.988Z,0.35
2023-01-15T03:37:32.930Z,0.40
2023-01-15T03:40:00.434Z,1.50
2023-01-15T03:42:43.071Z,0.60
2023-01-15T03:45:26.396Z,0.70
2023-01-15T03:48:03.258Z,0.40
2023-01-15T03:50:42.897Z,0.40
2023-01-15T03:53:29.692Z,0.30
2023-01-15T03:56:23.403Z,0.32
2023-01-15T03:59:08.875Z,0.60
2023-01-15T04:01:42.266Z,0.52
2023-01-15T04:04:13.963Z,0.90
2023-01-15T04:06:45.940Z,0.57
2023-01-15T04:09:14.958Z,0.43
2023-01-15T04:11:41.899Z,0.20
2023-01-15T04:14:13.370Z,0.20
2023-01-15T04:19:09.590Z,0.30
2023-01-15T04:21:38.935Z,0.28
2023-01-15T04:24:06.245Z,0.40
2023-01-15T04:26:35.532Z,0.28
2023-01-15T04:29:04.920Z,0.20
2023-01-15T04:31:36.096Z,0.22
2023-01-15T04:34:06.564Z,0.30
2023-01-15T04:36:35.624Z,0.25
2023-01-15T04:39:04.432Z,0.40
2023-01-15T04:41:54.683Z,0.40
2023-01-15T04:44:21.572Z,0.40
2023-01-15T04:46:48.742Z,0.30
2023-01-15T04:49:18.098Z,0.30
2023-01-15T04:51:45.786Z,0.30
2023-01-15T04:54:16.909Z,0.20
2023-01-15T04:56:50.527Z,0.20
2023-01-15T04:59:22.607Z,0.30
2023-01-15T05:02:02.484Z,0.20
2023-01-15T05:04:34.155Z,0.30
2023-01-15T05:07:05.435Z,0.28
2023-01-15T05:09:32.893Z,0.20
2023-01-15T05:11:59.817Z,0.25
2023-01-15T05:14:28.957Z,0.30
2023-01-15T05:16:58.105Z,0.30
2023-01-15T05:19:29.477Z,0.20
2023-01-15T05:21:56.376Z,0.20
2023-01-15T05:24:24.085Z,0.20
2023-01-15T05:26:51.079Z,0.20
2023-01-15T05:29:20.389Z,0.10
2023-01-15T05:31:47.384Z,0.20
2023-01-15T05:34:17.305Z,0.70
2023-01-15T05:36:44.255Z,0.30
2023-01-15T05:39:11.172Z,0.50
2023-01-15T05:41:50.689Z,0.30
2023-01-15T05:44:23.653Z,0.30
2023-01-15T05:46:58.223Z,0.20
2023-01-15T05:49:27.586Z,0.15
2023-01-15T05:51:55.751Z,0.15
2023-01-15T05:54:26.118Z,0.20
2023-01-15T05:56:53.742Z,0.20
2023-01-15T05:59:24.723Z,0.20
2023-01-15T06:01:52.601Z,0.20
2023-01-15T06:04:24.782Z,0.20
2023-01-15T06:06:56.106Z,0.20
2023-01-15T06:09:28.005Z,0.10
2023-01-15T06:11:56.345Z,0.20
2023-01-15T06:14:24.333Z,0.10
2023-01-15T06:16:51.283Z,0.20
2023-01-15T06:19:20.336Z,0.22
2023-01-15T06:21:47.345Z,0.10
2023-01-15T06:24:16.745Z,0.20
2023-01-15T06:26:46.338Z,0.10
2023-01-15T06:29:18.904Z,0.22
2023-01-15T06:31:46.698Z,0.20
2023-01-15T06:34:15.788Z,0.20
2023-01-15T06:36:42.640Z,0.20
2023-01-15T06:39:09.457Z,0.20
2023-01-15T06:41:54.639Z,0.10
2023-01-15T06:44:40.184Z,0.20
2023-01-15T06:47:23.187Z,0.30
2023-01-15T06:49:57.451Z,0.30
2023-01-15T06:52:27.438Z,0.15
2023-01-15T06:54:55.034Z,0.10
2023-01-15T06:57:22.415Z,0.20
2023-01-15T06:59:50.622Z,0.20
2023-01-15T07:02:18.365Z,0.10
2023-01-15T07:04:46.867Z,0.10
2023-01-15T07:07:20.306Z,0.30
2023-01-15T07:09:47.474Z,0.20
2023-01-15T07:12:14.632Z,0.20
2023-01-15T07:14:46.114Z,0.30
2023-01-15T07:17:16.025Z,0.30
2023-01-15T07:19:43.394Z,0.20
2023-01-15T07:22:11.171Z,0.30
2023-01-15T07:24:40.665Z,0.32
2023-01-15T07:27:09.737Z,0.90
2023-01-15T07:29:41.394Z,0.43
2023-01-15T07:32:11.313Z,0.40
2023-01-15T07:34:38.149Z,0.43
2023-01-15T07:37:05.097Z,0.50
2023-01-15T07:39:33.474Z,0.60
2023-01-15T07:42:18.706Z,0.20
2023-01-15T07:45:04.431Z,0.60
2023-01-15T07:47:50.182Z,0.50
2023-01-15T07:50:24.631Z,0.52
2023-01-15T07:52:53.938Z,0.38
2023-01-15T07:55:26.706Z,0.60
2023-01-15T07:57:53.896Z,0.50
2023-01-15T08:00:24.454Z,0.50
2023-01-15T08:02:54.595Z,0.73
2023-01-15T08:05:26.294Z,0.52
2023-01-15T08:07:55.779Z,0.40
2023-01-15T08:10:25.961Z,0.43
2023-01-15T08:13:11.497Z,0.47
2023-01-15T08:15:40.689Z,0.38
2023-01-15T08:18:10.683Z,0.40
2023-01-15T08:20:40.146Z,0.25
2023-01-15T08:23:12.667Z,0.30
2023-01-15T08:25:42.493Z,0.20
2023-01-15T08:28:14.560Z,0.20
2023-01-15T08:30:41.476Z,0.20
2023-01-15T08:33:13.201Z,0.20
2023-01-15T08:35:42.346Z,0.50
2023-01-15T08:38:09.528Z,0.40
2023-01-15T08:40:57.037Z,0.40
2023-01-15T08:43:26.949Z,0.30
2023-01-15T08:45:58.107Z,0.30
2023-01-15T08:48:26.703Z,0.85
2023-01-15T08:50:53.782Z,0.20
2023-01-15T08:53:20.801Z,0.20
2023-01-15T08:55:51.108Z,0.20
2023-01-15T08:58:18.097Z,0.40
2023-01-15T09:00:48.551Z,0.22
2023-01-15T09:03:18.137Z,0.40
2023-01-15T09:05:47.545Z,0.30
2023-01-15T09:08:14.622Z,0.30
2023-01-15T09:10:43.927Z,0.40
2023-01-15T09:13:10.848Z,0.50
2023-01-15T09:15:38.259Z,0.52
2023-01-15T09:18:10.682Z,0.25
2023-01-15T09:20:37.665Z,0.45
2023-01-15T09:23:09.353Z,0.50
2023-01-15T09:25:38.553Z,0.30
2023-01-15T09:28:05.800Z,0.55
2023-01-15T09:30:35.036Z,0.38
2023-01-15T09:33:04.327Z,0.30
2023-01-15T09:35:35.737Z,0.30
2023-01-15T09:38:02.654Z,0.30
2023-01-15T09:40:56.697Z,0.43
2023-01-15T09:43:56.555Z,0.30
2023-01-15T09:46:38.040Z,0.30
2023-01-15T09:49:41.747Z,0.40
2023-01-15T09:52:20.023Z,0.35
2023-01-15T09:55:00.517Z,0.60
2023-01-15T09:57:31.270Z,0.65
2023-01-15T10:00:03.680Z,4.27
2023-01-15T10:03:05.235Z,0.90
2023-01-15T10:05:57.507Z,1.10
2023-01-15T10:08:31.249Z,0.52
2023-01-15T10:11:22.552Z,0.40
2023-01-15T10:13:56.166Z,0.50
2023-01-15T10:16:30.055Z,0.40
2023-01-15T10:19:02.473Z,0.65
2023-01-15T10:22:00.688Z,0.60
2023-01-15T10:24:57.375Z,0.60
2023-01-15T10:27:30.059Z,0.50
2023-01-15T10:30:59.574Z,0.63
2023-01-15T10:33:57.220Z,0.52
2023-01-15T10:36:39.452Z,0.40
2023-01-15T10:40:03.663Z,0.68
2023-01-15T10:42:34.702Z,0.40
2023-01-15T10:45:23.500Z,0.30
2023-01-15T10:48:01.809Z,0.38
2023-01-15T10:50:30.967Z,0.90
2023-01-15T10:53:10.061Z,0.60
2023-01-15T10:55:41.851Z,0.60
2023-01-15T10:58:36.892Z,1.05
2023-01-15T11:01:13.513Z,1.20
2023-01-15T11:03:45.773Z,1.65
2023-01-15T11:06:19.649Z,1.83
2023-01-15T11:09:12.348Z,0.98
2023-01-15T11:11:59.649Z,1.00
2023-01-15T11:15:00.777Z,0.82
2023-01-15T11:17:55.391Z,0.63
2023-01-15T11:20:45.711Z,1.10
2023-01-15T11:23:25.564Z,1.10
2023-01-15T11:26:03.088Z,1.63
2023-01-15T11:28:43.112Z,1.27
2023-01-15T11:31:11.935Z,0.90
2023-01-15T11:33:40.103Z,0.77
2023-01-15T11:36:23.148Z,0.70
2023-01-15T11:38:55.028Z,0.68
2023-01-15T11:41:53.102Z,0.60
2023-01-15T11:44:42.268Z,0.70
2023-01-15T11:47:38.299Z,0.75
2023-01-15T11:50:36.887Z,0.70
2023-01-15T11:53:15.998Z,0.57
2023-01-15T11:55:53.898Z,0.40
2023-01-15T11:58:21.597Z,0.80
2023-01-15T12:00:54.096Z,0.82
2023-01-15T12:03:28.982Z,1.02
2023-01-15T12:06:12.049Z,0.60
2023-01-15T12:09:03.632Z,0.57
2023-01-15T12:11:53.266Z,0.60
2023-01-15T12:14:58.537Z,0.60
2023-01-15T12:18:12.200Z,0.88
2023-01-15T12:20:51.901Z,0.73
2023-01-15T12:23:42.986Z,0.70
2023-01-15T12:26:28.542Z,0.73
2023-01-15T12:29:02.490Z,0.90
2023-01-15T12:31:58.754Z,0.60
2023-01-15T12:34:30.856Z,0.55
2023-01-15T12:37:09.931Z,0.70
2023-01-15T12:39:48.359Z,0.95
2023-01-15T12:42:41.326Z,0.70
2023-01-15T12:45:15.582Z,0.40
2023-01-15T12:48:04.318Z,1.00
2023-01-15T12:50:45.016Z,0.40
2023-01-15T12:53:44.147Z,0.37
2023-01-15T12:57:01.807Z,0.60
2023-01-15T12:59:48.435Z,0.40
2023-01-15T13:02:19.824Z,0.40
2023-01-15T13:05:03.578Z,0.40
2023-01-15T13:07:38.814Z,0.50
2023-01-15T13:10:27.684Z,0.60
2023-01-15T13:13:00.786Z,0.65
2023-01-15T13:15:33.341Z,0.60
2023-01-15T13:18:35.738Z,0.60
2023-01-15T13:21:15.056Z,0.70
2023-01-15T13:24:18.652Z,1.08
2023-01-15T13:26:54.369Z,1.00
2023-01-15T13:29:49.334Z,0.95
2023-01-15T13:32:34.005Z,0.80
2023-01-15T13:35:30.626Z,1.27
2023-01-15T13:38:02.986Z,0.95
2023-01-15T13:40:39.067Z,0.82
2023-01-15T13:43:32.914Z,1.00
2023-01-15T13:46:04.093Z,0.80
2023-01-15T13:48:38.087Z,2.42
2023-01-15T13:51:07.120Z,1.05
2023-01-15T13:53:45.255Z,0.80
2023-01-15T13:56:32.363Z,0.70
2023-01-15T13:59:25.158Z,0.47
2023-01-15T14:01:54.270Z,0.60
2023-01-15T14:04:43.667Z,0.55
2023-01-15T14:07:23.611Z,1.02
2023-01-15T14:09:51.279Z,0.90
2023-01-15T14:12:46.216Z,0.60
2023-01-15T14:16:00.141Z,0.75
2023-01-15T14:18:35.918Z,0.60
2023-01-15T14:21:41.947Z,0.70
2023-01-15T14:24:39.878Z,0.88
2023-01-15T14:27:19.180Z,1.00
2023-01-15T14:29:55.229Z,1.27
2023-01-15T14:32:44.966Z,0.90
2023-01-15T14:35:20.807Z,0.98
2023-01-15T14:38:08.736Z,1.02
2023-01-15T14:40:36.640Z,1.13
2023-01-15T14:43:17.714Z,1.38
2023-01-15T14:45:48.195Z,1.88
2023-01-15T14:48:19.846Z,1.38
2023-01-15T14:50:49.938Z,1.13
2023-01-15T14:53:48.033Z,1.23
2023-01-15T14:56:36.221Z,0.95
2023-01-15T14:59:50.898Z,1.10
2023-01-15T15:02:39.210Z,1.38
2023-01-15T15:05:17.266Z,0.82
2023-01-15T15:07:53.041Z,1.20
2023-01-15T15:10:34.003Z,0.95
2023-01-15T15:13:27.896Z,1.38
2023-01-15T15:16:27.474Z,2.00
2023-01-15T15:19:13.705Z,2.00
2023-01-15T15:21:49.848Z,1.58
2023-01-15T15:24:38.274Z,1.40
2023-01-15T15:27:24.643Z,1.10
2023-01-15T15:30:07.289Z,1.17
2023-01-15T15:32:40.110Z,1.20
2023-01-15T15:35:30.354Z,0.95
2023-01-15T15:38:08.436Z,0.88
2023-01-15T15:40:37.224Z,1.25
2023-01-15T15:43:28.534Z,1.02
2023-01-15T15:46:16.268Z,1.02
2023-01-15T15:48:47.559Z,1.40
2023-01-15T15:51:54.140Z,1.05
2023-01-15T15:54:28.286Z,1.08
2023-01-15T15:57:18.619Z,1.88
2023-01-15T15:59:50.584Z,4.70
2023-01-15T16:02:38.971Z,1.98
2023-01-15T16:05:33.061Z,0.93
2023-01-15T16:08:15.303Z,1.70
2023-01-15T16:10:45.491Z,1.00
2023-01-15T16:13:26.301Z,0.90
2023-01-15T16:15:56.300Z,1.00
2023-01-15T16:18:27.272Z,1.00
2023-01-15T16:20:54.561Z,1.00
2023-01-15T16:23:31.489Z,0.93
2023-01-15T16:26:24.141Z,1.45
2023-01-15T16:28:57.553Z,0.88
2023-01-15T16:31:24.743Z,1.85
2023-01-15T16:33:57.994Z,1.70
2023-01-15T16:36:27.621Z,1.20
2023-01-15T16:38:59.520Z,1.10
2023-01-15T16:41:35.388Z,2.50
2023-01-15T16:44:05.858Z,1.88
2023-01-15T16:46:57.095Z,1.58
2023-01-15T16:49:25.982Z,1.90
2023-01-15T16:51:58.188Z,4.00
2023-01-15T16:54:33.653Z,1.55
2023-01-15T16:57:06.308Z,1.77
2023-01-15T16:59:33.259Z,2.65
2023-01-15T17:02:14.643Z,2.10
2023-01-15T17:04:44.732Z,2.15
2023-01-15T17:07:37.622Z,2.13
2023-01-15T17:10:06.977Z,1.80
2023-01-15T17:12:42.438Z,1.73
2023-01-15T17:15:18.256Z,1.27
2023-01-15T17:17:49.618Z,1.52
2023-01-15T17:20:19.245Z,1.23
2023-01-15T17:22:51.151Z,1.58
2023-01-15T17:25:33.322Z,2.30
2023-01-15T17:28:04.541Z,6.38
2023-01-15T17:30:33.070Z,4.95
2023-01-15T17:33:06.444Z,2.88
2023-01-15T17:35:41.131Z,2.17
2023-01-15T17:38:13.822Z,1.73
2023-01-15T17:40:41.204Z,11.63
2023-01-15T17:43:13.928Z,4.55
2023-01-15T17:45:41.895Z,2.17
2023-01-15T17:48:09.393Z,2.75
2023-01-15T17:50:41.051Z,1.60
2023-01-15T17:53:12.803Z,1.15
2023-01-15T17:56:00.489Z,1.17
2023-01-15T17:58:46.229Z,1.10
2023-01-15T18:01:39.985Z,2.35
2023-01-15T18:04:37.564Z,1.20
2023-01-15T18:07:04.933Z,2.13
2023-01-15T18:09:34.098Z,1.95
2023-01-15T18:12:01.197Z,1.30
2023-01-15T18:14:30.636Z,2.03
2023-01-15T18:16:59.764Z,2.90
2023-01-15T18:19:26.610Z,2.67
2023-01-15T18:21:56.123Z,2.28
2023-01-15T18:24:23.788Z,1.95
2023-01-15T18:26:53.399Z,2.30
2023-01-15T18:29:25.313Z,1.48
2023-01-15T18:31:54.239Z,1.15
2023-01-15T18:34:22.174Z,0.80
2023-01-15T18:36:51.252Z,1.20
2023-01-15T18:39:22.705Z,1.25
2023-01-15T18:41:51.783Z,1.10
2023-01-15T18:44:43.006Z,1.70
2023-01-15T18:47:15.606Z,1.35
2023-01-15T18:49:46.552Z,1.00
2023-01-15T18:52:35.199Z,1.02
2023-01-15T18:55:02.742Z,0.80
2023-01-15T18:57:33.164Z,1.02
2023-01-15T19:00:00.291Z,2.20
2023-01-15T19:02:27.261Z,2.08
2023-01-15T19:04:56.599Z,1.52
2023-01-15T19:07:26.503Z,1.70
2023-01-15T19:09:54.818Z,1.30
2023-01-15T19:12:22.854Z,1.67
2023-01-15T19:15:08.999Z,2.55
2023-01-15T19:17:54.395Z,1.85
2023-01-15T19:20:21.652Z,1.80
2023-01-15T19:23:02.752Z,1.60
2023-01-15T19:25:43.147Z,1.80
2023-01-15T19:28:17.957Z,1.75
2023-01-15T19:31:06.043Z,1.95
2023-01-15T19:33:36.142Z,2.97
2023-01-15T19:36:09.813Z,4.40
2023-01-15T19:38:41.757Z,3.40
2023-01-15T19:41:31.958Z,2.70
2023-01-15T19:44:17.392Z,1.40
2023-01-15T19:47:06.446Z,1.58
2023-01-15T19:49:57.605Z,1.48
2023-01-15T19:52:36.813Z,1.50
2023-01-15T19:55:14.957Z,1.35
2023-01-15T19:57:48.888Z,1.70
2023-01-15T20:00:22.486Z,1.40
2023-01-15T20:02:49.819Z,1.92
2023-01-15T20:05:17.461Z,2.05
2023-01-15T20:07:44.446Z,3.40
2023-01-15T20:10:20.641Z,3.33
2023-01-15T20:13:09.575Z,2.08
2023-01-15T20:15:44.028Z,3.08
2023-01-15T20:18:12.612Z,3.88
2023-01-15T20:20:47.475Z,3.45
2023-01-15T20:23:17.548Z,2.88
2023-01-15T20:25:50.017Z,3.10
2023-01-15T20:28:16.971Z,2.22
2023-01-15T20:30:46.896Z,2.15
2023-01-15T20:33:14.095Z,2.35
2023-01-15T20:35:40.985Z,2.15
2023-01-15T20:38:10.041Z,1.98
2023-01-15T20:40:39.959Z,1.90
2023-01-15T20:43:28.824Z,1.80
2023-01-15T20:46:06.909Z,1.90
2023-01-15T20:48:52.346Z,1.63
2023-01-15T20:51:20.038Z,1.95
2023-01-15T20:53:49.505Z,2.38
2023-01-15T20:56:19.489Z,3.00
2023-01-15T20:58:51.389Z,2.00
2023-01-15T21:01:21.521Z,1.70
2023-01-15T21:03:50.499Z,1.92
2023-01-15T21:06:17.458Z,2.45
2023-01-15T21:08:45.976Z,2.40
2023-01-15T21:11:15.910Z,2.10
2023-01-15T21:13:47.066Z,1.42
2023-01-15T21:16:20.054Z,3.50
2023-01-15T21:18:49.098Z,1.63
2023-01-15T21:21:18.745Z,1.55
2023-01-15T21:23:45.959Z,2.00
2023-01-15T21:26:16.896Z,2.60
2023-01-15T21:28:44.698Z,3.65
2023-01-15T21:31:15.566Z,11.73
2023-01-15T21:33:42.714Z,6.55
2023-01-15T21:36:13.169Z,5.55
2023-01-15T21:38:51.747Z,6.18
2023-01-15T21:41:38.648Z,4.38
2023-01-15T21:44:23.861Z,4.45
2023-01-15T21:46:50.771Z,7.30
2023-01-15T21:49:17.621Z,3.78
2023-01-15T21:51:44.488Z,2.47
2023-01-15T21:54:16.407Z,3.33
2023-01-15T21:56:46.252Z,3.65
2023-01-15T21:59:16.978Z,3.67
2023-01-15T22:01:44.007Z,2.67
2023-01-15T22:04:10.926Z,4.78
2023-01-15T22:06:42.486Z,3.42
2023-01-15T22:11:46.679Z,2.70
2023-01-15T22:14:25.371Z,2.47
2023-01-15T22:16:55.556Z,12.38
2023-01-15T22:19:25.677Z,5.80
2023-01-15T22:21:59.025Z,3.85
2023-01-15T22:24:28.296Z,2.20
2023-01-15T22:26:58.777Z,2.47
2023-01-15T22:29:30.602Z,2.50
2023-01-15T22:31:58.888Z,2.53
2023-01-15T22:34:27.762Z,2.42
2023-01-15T22:36:58.246Z,2.50
2023-01-15T22:39:28.761Z,20.83
2023-01-15T22:42:18.900Z,7.80
2023-01-15T22:44:50.533Z,11.40
2023-01-15T22:49:45.710Z,3.78
2023-01-15T22:52:14.966Z,2.80
2023-01-15T22:54:46.682Z,3.10
2023-01-15T22:57:13.764Z,3.03
2023-01-15T22:59:45.046Z,2.33
2023-01-15T23:02:12.368Z,1.92
2023-01-15T23:04:41.658Z,1.58
2023-01-15T23:07:13.645Z,2.15
2023-01-15T23:09:40.532Z,1.67
2023-01-15T23:12:12.426Z,1.30
2023-01-15T23:14:39.451Z,1.48
2023-01-15T23:17:06.386Z,1.25
2023-01-15T23:19:33.926Z,1.70
2023-01-15T23:22:01.036Z,1.40
2023-01-15T23:24:27.981Z,2.72
2023-01-15T23:26:57.434Z,1.77
2023-01-15T23:29:24.301Z,1.58
2023-01-15T23:31:51.198Z,1.90
2023-01-15T23:34:18.091Z,1.50
2023-01-15T23:36:44.905Z,1.10
2023-01-15T23:39:11.827Z,1.17
2023-01-15T23:41:57.089Z,1.60
2023-01-15T23:44:45.129Z,2.63
2023-01-15T23:47:12.180Z,1.48
2023-01-15T23:49:39.124Z,1.13
2023-01-15T23:52:06.573Z,1.52
2023-01-15T23:54:33.574Z,1.70
2023-01-15T23:57:04.480Z,1.30
2023-01-15T23:59:31.382Z,1.10
